الصفحة الرئيسية
METAR-TAF:

METAR-TAF

مطار :

Villavicencio, كولومبيا

دائرة عرض: 04-10N, خط طول: 073-37W, ارتفاع: 423 متر

مراقبة الطقس الحالي

تاريخ ووقت الإصدار 35 دقيقة قبل الساعة 14:00UTC
ريح 4 عقدة من الشمال/الشمال الغربي
درجة الحرارة 31°درجة مئوية
الرطوبة 59%
ضغط 1015 hPa
الرؤية: 7000 متر
غيوم قليلة على ارتفاع 2300 قدم

METAR: SKVV 011400Z 34004KT 7000 FEW023 31/22 Q1015 RMK HZ

زمن: 09:35 (14:35 UTC)


TAF: مفقودة

أرصاد الطقس والتوقعات من أكثر من 4000 مطار (تقارير الطقس للمطار METAR والتنبؤ بالطقس بالمطارTAF).

المحطات المتاحة هي النقط الصفراء والحمراء على الخريطة.

حرك المؤشر فوق النقطة لمعرفة اسم المحطة.

ثم انقر لمعرفة أرصاد وتوقعات الطقس.

لتغيير الخارطة: اضغط على الأزرار الخضراء مع رمز الصليب الأسود للتكبير. على الزر الأخضر مع شرطة للتصغير، أو على الأسهم الخضراء للخرائط المجاورة.


METAR-TAF: